Tomahawk, Wisconsin
Current Conditions -  °F | °C
As of 6:55 PM on Friday 24 Oct 2014 (Local Time) from KTKV Reporting Station
Overcast Overcast  
Wind Chill: 55°   Ceiling: 2100
Heat Index: 55°   Visibility: 10mi
Dew Point: 47°   Wind: 0mph
Humidity: 77%   Direction: NA
Pressure: 29.87"   Gusts: NA
Location:  45.47°N, 89.73°W
Report Text: KTKV 242355Z AUTO 00000KT 10SM OVC021 13/09 A2987 RMK AO2 60001 T01250085 10153 20100
Loading
Personal Weather Stations






























Interactive Weather Map
Tropical Storm Tracking
New forecast layout! Learn more

10-Day Weather Forecast

Advertisements
Track Severe Weather on mobile